createdAt,value
2022-07-30T00:08:11.835Z,8
2022-07-30T00:37:31.712Z,8
2022-07-30T01:06:50.251Z,8
2022-07-30T01:36:07.425Z,10
2022-07-30T02:05:25.581Z,10
2022-07-30T02:34:44.669Z,10
2022-07-30T03:04:03.806Z,8
2022-07-30T03:33:22.048Z,9
2022-07-30T04:02:43.117Z,10
2022-07-30T04:32:03.210Z,10
2022-07-30T05:01:23.892Z,11
2022-07-30T05:29:58.223Z,10
2022-07-30T05:59:19.326Z,11
2022-07-30T06:28:40.685Z,11
2022-07-30T06:58:00.818Z,13
2022-07-30T07:27:21.099Z,10
2022-07-30T07:56:42.367Z,10
2022-07-30T08:25:44.699Z,13
2022-07-30T08:55:05.191Z,10
2022-07-30T09:24:24.672Z,10
2022-07-30T09:53:46.182Z,10
2022-07-30T10:22:47.080Z,8
2022-07-30T10:51:34.609Z,10
2022-07-30T11:20:11.803Z,10
2022-07-30T11:48:52.325Z,8
2022-07-30T12:18:25.696Z,8
2022-07-30T12:46:45.122Z,7
2022-07-30T13:16:06.611Z,7
2022-07-30T13:45:29.382Z,8
2022-07-30T14:14:52.118Z,5
2022-07-30T14:44:13.982Z,5
2022-07-30T15:13:02.262Z,7
2022-07-30T15:42:24.625Z,5
2022-07-30T16:11:45.157Z,6
2022-07-30T16:40:36.305Z,7
2022-07-30T17:09:56.787Z,7
2022-07-30T17:38:44.769Z,6
2022-07-30T18:08:04.088Z,5
2022-07-30T18:37:24.963Z,7
2022-07-30T19:06:00.179Z,6
2022-07-30T19:35:20.663Z,6
2022-07-30T20:04:41.393Z,8
2022-07-30T20:33:26.748Z,7
2022-07-30T21:02:01.473Z,10
2022-07-30T21:30:57.180Z,9
2022-07-30T21:59:47.275Z,7
2022-07-30T22:29:05.785Z,8
2022-07-30T22:58:26.221Z,5
2022-07-30T23:27:20.688Z,7
2022-07-30T23:56:40.636Z,7
